Time;durP1;ratioP1;P1;durP2;ratioP2;P2;SDS_P1;SDS_P2;PMS_P1;PMS_P2;Temp;Humidity;BMP_temperature;BMP_pressure;BME280_temperature;BME280_humidity;BME280_pressure;Samples;Min_cycle;Max_cycle;Signal;HPM_P1;HPM_P2
2023/03/21 00:00:46;;;;;;;11.90;6.00;;;;;;;7.22;99.18;101396.72;10124365;29;20114;-86
2023/03/21 00:06:20;;;;;;;12.93;6.47;;;;;;;7.25;99.08;101395.16;10096110;29;20230;-85
2023/03/21 00:11:40;;;;;;;10.23;4.88;;;;;;;7.28;99.27;101397.00;10099754;29;20352;-86
2023/03/21 00:16:57;;;;;;;12.50;5.57;;;;;;;7.28;99.37;101397.00;10105471;29;20056;-87
2023/03/21 00:22:19;;;;;;;11.77;5.60;;;;;;;7.29;99.38;101395.28;10090340;29;20157;-87
2023/03/21 00:27:41;;;;;;;9.02;4.63;;;;;;;7.29;99.20;101383.13;10063164;29;20052;-87
2023/03/21 00:33:11;;;;;;;11.43;4.93;;;;;;;7.27;99.32;101374.38;10096020;29;20057;-86
2023/03/21 00:38:26;;;;;;;15.40;5.07;;;;;;;7.26;99.39;101381.28;10106865;29;20446;-87
2023/03/21 00:43:29;;;;;;;15.52;5.65;;;;;;;7.31;99.38;101370.16;10120014;29;20053;-86
2023/03/21 00:48:31;;;;;;;9.88;4.78;;;;;;;7.28;99.30;101355.31;10096739;29;20056;-85
2023/03/21 00:53:32;;;;;;;9.35;5.03;;;;;;;7.30;99.63;101363.19;10102586;29;20074;-86
2023/03/21 00:58:34;;;;;;;10.93;5.63;;;;;;;7.33;99.42;101345.06;10095064;29;20049;-85
2023/03/21 01:03:41;;;;;;;9.38;5.20;;;;;;;7.30;99.50;101345.84;10115971;29;20057;-86
2023/03/21 01:08:47;;;;;;;11.73;6.53;;;;;;;7.33;99.87;101337.25;10094760;29;20506;-86
2023/03/21 01:13:54;;;;;;;10.00;5.70;;;;;;;7.37;99.68;101332.22;10095953;29;20140;-85
2023/03/21 01:19:17;;;;;;;9.13;4.85;;;;;;;7.32;99.72;101333.75;10101895;29;20045;-85
2023/03/21 01:24:29;;;;;;;8.35;4.60;;;;;;;7.31;99.76;101331.09;10102491;29;20056;-84
2023/03/21 01:29:35;;;;;;;19.85;6.53;;;;;;;7.32;99.86;101332.88;10094081;29;20041;-86
2023/03/21 01:34:37;;;;;;;9.00;5.05;;;;;;;7.34;99.89;101321.69;10093869;29;20048;-87
2023/03/21 01:39:44;;;;;;;10.35;5.65;;;;;;;7.36;99.83;101324.34;10108826;29;20048;-85
2023/03/21 01:45:03;;;;;;;10.43;5.50;;;;;;;7.38;99.92;101320.06;10116710;29;20063;-85
2023/03/21 01:50:33;;;;;;;12.23;5.30;;;;;;;7.36;99.85;101311.31;10109636;29;20115;-86
2023/03/21 01:56:29;;;;;;;8.63;4.82;;;;;;;7.32;100.00;101304.22;10110469;29;20060;-87
2023/03/21 02:01:47;;;;;;;8.18;4.55;;;;;;;7.37;99.93;101307.88;10125463;29;20048;-85
2023/03/21 02:07:12;;;;;;;14.80;5.88;;;;;;;7.38;99.92;101307.94;10098290;29;20056;-86
2023/03/21 02:12:26;;;;;;;11.38;5.47;;;;;;;7.39;99.98;101295.81;10103884;29;20140;-86
2023/03/21 02:17:57;;;;;;;10.27;5.43;;;;;;;7.37;100.00;101293.16;10114475;29;20048;-86
2023/03/21 02:23:55;;;;;;;9.77;5.30;;;;;;;7.41;100.00;101291.53;10108604;29;20045;-87
2023/03/21 02:29:17;;;;;;;12.88;5.82;;;;;;;7.44;100.00;101276.00;10120946;29;20052;-85
2023/03/21 02:34:45;;;;;;;9.30;4.97;;;;;;;7.45;100.00;101275.19;10116982;29;20504;-85
2023/03/21 02:40:27;;;;;;;12.13;6.03;;;;;;;7.43;100.00;101269.00;10141579;29;20060;-85
2023/03/21 02:45:41;;;;;;;;;;;;;;;7.48;100.00;101271.81;10108898;29;20072;-85
2023/03/21 02:51:01;;;;;;;9.00;4.32;;;;;;;7.46;100.00;101265.66;10103416;29;19934;-86
2023/03/21 02:56:09;;;;;;;14.48;6.50;;;;;;;7.45;100.00;101267.38;10084352;29;20049;-86
2023/03/21 03:01:15;;;;;;;11.57;6.00;;;;;;;7.48;100.00;101271.81;10090091;29;20119;-86
2023/03/21 03:06:33;;;;;;;9.73;5.28;;;;;;;7.50;100.00;101271.03;10111541;29;20646;-86
2023/03/21 03:11:46;;;;;;;11.50;5.97;;;;;;;7.53;100.00;101268.53;10100497;29;20140;-88
2023/03/21 03:17:19;;;;;;;10.45;5.10;;;;;;;7.56;100.00;101266.03;10106998;29;20072;-87
2023/03/21 03:22:38;;;;;;;15.60;6.45;;;;;;;7.57;100.00;101249.59;10082614;29;20082;-85
2023/03/21 03:27:43;;;;;;;12.02;5.43;;;;;;;7.55;100.00;101259.06;10084497;29;20479;-87
2023/03/21 03:32:53;;;;;;;12.38;5.53;;;;;;;7.59;100.00;101258.34;10107059;29;20056;-86
2023/03/21 03:38:01;;;;;;;11.35;5.50;;;;;;;7.58;100.00;101259.19;10101037;29;20725;-87
2023/03/21 03:43:21;;;;;;;12.95;5.40;;;;;;;7.59;100.00;101242.69;10076052;29;20144;-86
2023/03/21 03:48:45;;;;;;;13.82;5.90;;;;;;;7.60;100.00;101241.88;10095781;29;20149;-87
2023/03/21 03:54:10;;;;;;;14.18;5.60;;;;;;;7.66;100.00;101241.22;10080594;29;20522;-86
2023/03/21 03:59:25;;;;;;;15.00;7.10;;;;;;;7.65;100.00;101255.06;10101950;29;20057;-87
2023/03/21 04:04:42;;;;;;;12.52;6.03;;;;;;;7.68;100.00;101249.09;10104662;29;20484;-87
2023/03/21 04:09:52;;;;;;;14.10;7.40;;;;;;;7.70;100.00;101244.81;10102439;29;20048;-88
2023/03/21 04:14:56;;;;;;;13.20;6.97;;;;;;;7.72;100.00;101241.44;10111230;29;20052;-87
2023/03/21 04:20:16;;;;;;;14.60;6.75;;;;;;;7.72;100.00;101236.22;10111909;29;20060;-85
2023/03/21 04:25:37;;;;;;;16.38;6.28;;;;;;;7.76;100.00;101235.50;10085794;29;20092;-85
2023/03/21 04:31:16;;;;;;;16.08;6.88;;;;;;;7.78;100.00;101232.97;10101662;29;20045;-85
2023/03/21 04:36:45;;;;;;;16.85;5.53;;;;;;;7.78;100.00;101235.56;10080206;29;20062;-85
2023/03/21 04:41:48;;;;;;;16.55;7.07;;;;;;;7.82;100.00;101224.41;10098560;29;20063;-85
2023/03/21 04:46:54;;;;;;;13.90;7.28;;;;;;;7.80;100.00;101228.66;10113955;29;20517;-87
2023/03/21 04:51:56;;;;;;;13.75;6.65;;;;;;;7.80;100.00;101223.44;10089939;29;20076;-86
2023/03/21 04:57:05;;;;;;;13.73;5.40;;;;;;;7.83;100.00;101222.69;10112372;29;20353;-88
2023/03/21 05:02:22;;;;;;;13.27;5.78;;;;;;;7.82;100.00;101214.00;10093746;29;20056;-85
2023/03/21 05:07:31;;;;;;;16.73;7.43;;;;;;;7.79;100.00;101211.25;10126272;29;20061;-87
2023/03/21 05:12:41;;;;;;;15.98;6.55;;;;;;;7.81;100.00;101209.59;10136859;29;20049;-85
2023/03/21 05:17:53;;;;;;;16.55;6.47;;;;;;;7.82;100.00;101211.38;10100475;29;20096;-88
2023/03/21 05:23:03;;;;;;;13.75;6.57;;;;;;;7.82;100.00;101208.78;10104809;29;20056;-86
2023/03/21 05:28:17;;;;;;;13.00;6.35;;;;;;;7.83;100.00;101207.91;10098741;29;20461;-87
2023/03/21 05:33:31;;;;;;;16.00;6.32;;;;;;;7.81;100.00;101209.59;10119256;29;20789;-87
2023/03/21 05:39:02;;;;;;;15.13;6.47;;;;;;;7.83;100.00;101207.91;10109560;29;20055;-86
2023/03/21 05:44:16;;;;;;;16.15;6.55;;;;;;;7.86;100.00;101202.81;10075417;29;20073;-87
2023/03/21 05:49:29;;;;;;;15.80;7.13;;;;;;;7.88;100.00;101205.47;10097820;29;20539;-87
2023/03/21 05:54:46;;;;;;;8.30;4.40;;;;;;;7.88;100.00;101193.34;10099966;29;20164;-89
2023/03/21 06:00:03;;;;;;;10.65;6.15;;;;;;;7.90;100.00;101189.06;10109337;29;20136;-87
2023/03/21 06:05:41;;;;;;;14.10;6.15;;;;;;;7.92;100.00;101191.72;10083354;29;20053;-88
2023/03/21 06:11:02;;;;;;;13.90;6.65;;;;;;;7.96;100.00;101184.03;10088837;29;20053;-87
2023/03/21 06:16:45;;;;;;;12.82;6.45;;;;;;;8.00;100.00;101189.34;10097187;29;20080;-89
2023/03/21 06:22:34;;;;;;;10.18;5.95;;;;;;;8.01;100.00;101188.53;10072142;29;20053;-87
2023/03/21 06:34:02;;;;;;;11.82;5.75;;;;;;;8.04;100.00;101196.47;10105040;29;20135;-88
2023/03/21 06:39:10;;;;;;;13.20;6.45;;;;;;;8.03;100.00;101189.47;10089306;29;20133;-87
2023/03/21 06:44:41;;;;;;;14.77;5.72;;;;;;;8.06;100.00;101198.28;10108883;29;20545;-90
2023/03/21 06:49:51;;;;;;;12.20;4.85;;;;;;;8.06;100.00;101198.28;10103618;29;20560;-89
2023/03/21 06:54:56;;;;;;;9.43;4.70;;;;;;;8.02;100.00;101193.81;10095836;29;20119;-89
2023/03/21 07:00:20;;;;;;;10.48;4.75;;;;;;;8.06;100.00;101194.78;10094644;29;20136;-90
2023/03/21 07:05:49;;;;;;;10.27;4.43;;;;;;;8.11;100.00;101198.44;10105650;29;20580;-89
2023/03/21 07:10:57;;;;;;;8.63;4.32;;;;;;;8.16;100.00;101193.38;10094867;29;20049;-90
2023/03/21 07:16:27;;;;;;;7.78;3.80;;;;;;;8.17;100.00;101193.44;10089205;29;20064;-87
2023/03/21 07:21:55;;;;;;;9.95;4.88;;;;;;;8.23;100.00;101188.41;10107866;29;20052;-88
2023/03/21 07:27:37;;;;;;;12.05;5.80;;;;;;;8.24;100.00;101194.50;10114799;29;20057;-89
2023/03/21 07:32:44;;;;;;;9.37;4.50;;;;;;;8.27;100.00;101190.31;10106605;29;20047;-85
2023/03/21 07:37:46;;;;;;;10.00;3.92;;;;;;;8.28;100.00;101189.44;10114416;29;20445;-84
2023/03/21 07:42:50;;;;;;;5.65;3.08;;;;;;;8.28;100.00;101197.28;10107393;29;20065;-86
2023/03/21 07:48:02;;;;;;;12.93;5.05;;;;;;;8.26;100.00;101185.91;10099884;29;20406;-86
2023/03/21 07:53:07;;;;;;;5.78;3.35;;;;;;;8.31;100.00;101191.28;10116718;29;20044;-86
2023/03/21 07:58:09;;;;;;;7.45;3.65;;;;;;;8.37;100.00;101185.38;10105462;29;20093;-86
2023/03/21 08:03:12;;;;;;;7.88;3.90;;;;;;;8.41;100.00;101197.69;10104355;29;20129;-87
2023/03/21 08:08:14;;;;;;;7.68;4.00;;;;;;;8.42;100.00;101194.22;10105648;29;20056;-87
2023/03/21 08:13:15;;;;;;;7.50;3.22;;;;;;;8.45;100.00;101196.97;10105149;29;20057;-88
2023/03/21 08:18:17;;;;;;;7.00;3.42;;;;;;;8.47;100.00;101187.47;10097705;29;20407;-87
2023/03/21 08:23:20;;;;;;;8.38;3.97;;;;;;;8.50;100.00;101184.97;10107146;29;20506;-87
2023/03/21 08:28:28;;;;;;;7.57;3.42;;;;;;;8.57;100.00;101184.34;10107254;29;20053;-87
2023/03/21 08:33:31;;;;;;;6.55;3.38;;;;;;;8.62;100.00;101189.69;10099988;29;20052;-89
2023/03/21 08:45:40;;;;;;;6.22;3.50;;;;;;;8.59;100.00;101187.00;9927886;29;20054;-90
2023/03/21 08:50:45;;;;;;;6.53;3.15;;;;;;;8.60;100.00;101181.81;10102552;29;20072;-90
2023/03/21 08:56:03;;;;;;;6.35;3.08;;;;;;;8.59;100.00;101180.03;10095469;29;20127;-87
2023/03/21 09:01:15;;;;;;;7.72;3.78;;;;;;;8.59;100.00;101187.88;10079543;29;20059;-87
2023/03/21 09:07:06;;;;;;;5.82;2.65;;;;;;;8.60;100.00;101187.03;10052827;29;20490;-89
2023/03/21 09:18:49;;;;;;;6.53;3.15;;;;;;;8.70;100.00;101182.09;10096413;29;20532;-84
2023/03/21 09:23:54;;;;;;;7.40;3.05;;;;;;;8.78;100.00;101177.97;10105932;29;20482;-87
2023/03/21 09:28:57;;;;;;;6.57;2.90;;;;;;;8.85;100.00;101180.81;10090331;29;20064;-87
2023/03/21 09:34:03;;;;;;;6.57;2.88;;;;;;;8.87;100.00;101173.03;10118820;29;20147;-86
2023/03/21 09:39:05;;;;;;;4.63;2.28;;;;;;;8.92;100.00;101168.84;10101519;29;20048;-85
2023/03/21 09:44:43;;;;;;;6.07;2.40;;;;;;;8.95;100.00;101183.75;10099198;29;20108;-87
2023/03/21 09:49:50;;;;;;;6.30;2.95;;;;;;;8.99;100.00;101178.66;10095597;29;20057;-86
2023/03/21 09:54:56;;;;;;;5.97;2.88;;;;;;;8.93;100.00;101173.25;10105773;29;20420;-86
2023/03/21 10:00:07;;;;;;;5.30;2.25;;;;;;;8.95;100.00;101176.78;10092803;29;20056;-87
2023/03/21 10:05:29;;;;;;;4.88;2.50;;;;;;;8.97;100.00;101167.25;10110356;29;20049;-85
2023/03/21 10:10:36;;;;;;;4.18;2.65;;;;;;;9.00;100.00;101166.47;10106856;29;20474;-87
2023/03/21 10:15:38;;;;;;;6.25;2.50;;;;;;;9.06;99.95;101168.38;10105544;29;20048;-86
2023/03/21 10:20:41;;;;;;;6.32;2.85;;;;;;;9.08;100.00;101167.56;10117236;29;20045;-86
2023/03/21 10:25:47;;;;;;;9.57;3.22;;;;;;;9.02;99.79;101168.28;10120575;29;20144;-86
2023/03/21 10:30:51;;;;;;;5.93;2.30;;;;;;;9.11;99.83;101165.06;10112387;29;20060;-87
2023/03/21 10:36:01;;;;;;;6.55;2.03;;;;;;;9.10;99.70;101165.91;10131312;29;20528;-87
2023/03/21 10:41:02;;;;;;;6.78;3.00;;;;;;;9.22;99.62;101154.00;10091254;29;20061;-87
2023/03/21 10:46:11;;;;;;;10.43;2.67;;;;;;;9.35;99.82;101141.34;10098326;29;20049;-87
2023/03/21 10:51:20;;;;;;;5.70;2.90;;;;;;;9.49;99.56;101138.25;10118552;29;20079;-86
2023/03/21 10:56:26;;;;;;;9.37;3.07;;;;;;;9.62;99.47;101137.69;10104489;29;20099;-86
2023/03/21 11:01:38;;;;;;;9.05;2.72;;;;;;;9.61;99.65;101135.03;10101316;29;20049;-86
2023/03/21 11:06:41;;;;;;;7.82;2.45;;;;;;;9.57;99.42;101133.22;10115354;29;20072;-85
2023/03/21 11:11:55;;;;;;;6.43;2.55;;;;;;;9.64;99.07;101128.19;10111964;29;20049;-85
2023/03/21 11:16:56;;;;;;;7.53;3.60;;;;;;;9.69;98.82;101131.78;10104474;29;20488;-83
2023/03/21 11:22:04;;;;;;;6.40;2.95;;;;;;;9.82;98.68;101119.94;10106115;29;20070;-85
2023/03/21 11:27:07;;;;;;;6.35;2.88;;;;;;;9.86;98.50;101116.56;10107151;29;20045;-85
2023/03/21 11:32:33;;;;;;;5.32;2.40;;;;;;;9.82;98.25;101113.81;10107394;29;20079;-85
2023/03/21 11:37:35;;;;;;;6.35;2.95;;;;;;;9.88;98.14;101117.47;10109485;29;20262;-84
2023/03/21 11:42:46;;;;;;;8.50;3.13;;;;;;;9.81;97.95;101105.06;10104778;29;20770;-85
2023/03/21 11:48:00;;;;;;;9.13;3.10;;;;;;;9.96;97.74;101101.97;10110243;29;20045;-87
2023/03/21 11:53:25;;;;;;;5.38;2.67;;;;;;;9.99;97.65;101099.41;10109872;29;20215;-88
2023/03/21 11:58:49;;;;;;;5.95;2.60;;;;;;;9.90;97.49;101094.84;10092407;29;20135;-87
2023/03/21 12:04:27;;;;;;;9.13;3.25;;;;;;;9.84;97.27;101089.47;10112858;29;21199;-89
2023/03/21 12:09:43;;;;;;;5.50;2.90;;;;;;;9.94;97.16;101084.44;10107737;29;20274;-89
2023/03/21 12:15:18;;;;;;;5.80;3.30;;;;;;;9.94;97.05;101076.59;10119076;29;20234;-88
2023/03/21 12:20:53;;;;;;;6.85;3.53;;;;;;;9.85;97.08;101080.78;10108315;29;20052;-88
2023/03/21 12:26:10;;;;;;;9.13;4.15;;;;;;;9.77;97.12;101069.22;10117734;29;20052;-87
2023/03/21 12:31:36;;;;;;;7.15;3.45;;;;;;;9.68;97.19;101067.28;10106095;29;20139;-87
2023/03/21 12:37:00;;;;;;;8.52;4.63;;;;;;;9.67;97.03;101068.13;10111424;29;20049;-86
2023/03/21 12:42:19;;;;;;;11.85;5.28;;;;;;;9.70;97.21;101051.63;10102945;29;20062;-87
2023/03/21 12:47:28;;;;;;;8.43;4.53;;;;;;;9.71;97.08;101049.06;10106104;29;20528;-86
2023/03/21 12:52:35;;;;;;;12.77;4.87;;;;;;;9.70;97.11;101054.25;10083298;29;20049;-87
2023/03/21 12:57:51;;;;;;;10.48;4.90;;;;;;;9.80;97.38;101042.28;10105403;29;22089;-84
2023/03/21 13:03:01;;;;;;;9.23;4.78;;;;;;;9.83;97.35;101039.72;10103309;29;20051;-88
2023/03/21 13:08:12;;;;;;;11.98;5.72;;;;;;;9.76;97.08;101029.97;10127582;29;20079;-86
2023/03/21 13:13:20;;;;;;;10.27;5.63;;;;;;;9.66;97.16;101026.25;10095837;29;20068;-87
2023/03/21 13:18:42;;;;;;;9.02;4.50;;;;;;;9.60;97.27;101021.75;10114243;29;20092;-87
2023/03/21 13:24:22;;;;;;;9.93;5.00;;;;;;;9.70;97.25;101018.50;10105057;29;20415;-88
2023/03/21 13:29:43;;;;;;;7.83;3.73;;;;;;;9.72;97.20;100995.03;10102397;29;20053;-88
2023/03/21 13:34:45;;;;;;;10.55;4.20;;;;;;;9.82;97.01;100991.78;10103517;29;20087;-88
2023/03/21 13:39:48;;;;;;;8.52;4.38;;;;;;;9.99;96.92;100988.66;10105050;29;20048;-86
2023/03/21 13:44:57;;;;;;;11.10;4.50;;;;;;;10.03;96.69;100996.63;10100884;29;20445;-86
2023/03/21 13:50:17;;;;;;;8.48;4.40;;;;;;;10.04;96.69;100987.94;10092985;29;20077;-88
2023/03/21 13:55:21;;;;;;;;;;;;;;;9.95;96.74;100977.22;10106147;29;20064;-88
2023/03/21 14:25:20;;;;;;;6.82;4.07;;;;;;;10.03;95.89;100925.97;10360158;23;20060;-89
2023/03/21 14:31:07;;;;;;;8.80;4.88;;;;;;;10.00;95.84;100933.75;10024427;29;20049;-88
2023/03/21 14:42:27;;;;;;;7.53;3.97;;;;;;;9.95;95.45;100924.91;6424541;27;20051;-88
2023/03/21 14:48:52;;;;;;;9.27;5.15;;;;;;;9.93;95.32;100926.63;10071105;29;20304;-88
2023/03/21 14:55:25;;;;;;;11.52;4.88;;;;;;;10.03;95.27;100919.88;10123607;29;20514;-88
2023/03/21 15:01:33;;;;;;;9.18;4.80;;;;;;;10.09;95.19;100915.63;10129199;29;20058;-88
2023/03/21 15:07:37;;;;;;;8.73;4.13;;;;;;;9.99;95.22;100904.97;10081505;29;20092;-88
2023/03/21 15:13:02;;;;;;;10.23;4.97;;;;;;;9.95;95.00;100903.13;10124274;29;20355;-87
2023/03/21 15:25:00;;;;;;;10.38;4.28;;;;;;;10.07;95.12;100891.19;9954143;29;20063;-87
2023/03/21 15:31:22;;;;;;;9.43;4.93;;;;;;;10.04;94.67;100893.75;9985083;29;20390;-87
2023/03/21 15:37:00;;;;;;;9.35;4.85;;;;;;;10.09;94.43;100881.63;9995987;29;20046;-87
2023/03/21 15:42:40;;;;;;;6.80;3.83;;;;;;;10.10;94.44;100877.25;9980643;29;20571;-87
2023/03/21 15:48:12;;;;;;;8.50;3.92;;;;;;;10.14;94.03;100873.00;9933799;29;20060;-86
2023/03/21 15:53:27;;;;;;;8.38;4.10;;;;;;;10.14;93.76;100855.56;9983242;29;20062;-86
2023/03/21 16:11:59;;;;;;;8.27;4.10;;;;;;;10.20;93.12;100849.56;10233370;23;20488;-86
2023/03/21 16:17:36;;;;;;;7.45;3.88;;;;;;;10.20;92.95;100842.59;10120483;29;20053;-83
2023/03/21 16:22:47;;;;;;;8.85;4.10;;;;;;;10.21;92.84;100843.50;10127014;29;20416;-83
2023/03/21 16:27:52;;;;;;;10.55;4.40;;;;;;;10.23;92.64;100844.41;10155915;29;20429;-83
2023/03/21 16:33:21;;;;;;;8.60;4.47;;;;;;;10.22;92.59;100853.09;10133204;29;20057;-82
2023/03/21 16:38:31;;;;;;;10.23;4.38;;;;;;;10.29;92.66;100852.34;10138814;29;20119;-84
2023/03/21 16:43:33;;;;;;;8.38;4.10;;;;;;;10.34;92.36;100850.72;10127137;29;20112;-83
2023/03/21 16:48:35;;;;;;;7.90;3.85;;;;;;;10.35;92.18;100844.66;10131574;29;20060;-83
2023/03/21 16:53:36;;;;;;;8.35;3.67;;;;;;;10.32;91.90;100851.53;10127778;29;20478;-84
2023/03/21 16:58:38;;;;;;;6.38;3.35;;;;;;;10.31;91.80;100842.78;10116098;29;20060;-84
2023/03/21 17:03:43;;;;;;;11.20;4.63;;;;;;;10.22;91.88;100840.00;10100537;29;20489;-84
2023/03/21 17:08:49;;;;;;;8.40;3.95;;;;;;;10.21;91.90;100833.03;10112239;29;20112;-81
2023/03/21 17:13:53;;;;;;;5.88;3.30;;;;;;;10.18;91.89;100830.34;10107964;29;20051;-83
2023/03/21 17:18:55;;;;;;;9.13;3.70;;;;;;;10.18;91.60;100841.69;10115211;29;20052;-84
2023/03/21 17:24:07;;;;;;;5.97;3.35;;;;;;;10.19;91.72;100842.56;10146538;29;20051;-84
2023/03/21 17:29:34;;;;;;;7.22;2.78;;;;;;;10.17;91.55;100836.44;10107907;29;20040;-85
2023/03/21 17:35:05;;;;;;;6.93;3.78;;;;;;;10.14;91.47;100828.50;10114458;29;20060;-84
2023/03/21 17:47:15;;;;;;;;;;;;;;;;;;;;;
2023/03/21 17:53:16;;;;;;;5.70;2.83;;;;;;;9.96;91.66;100842.13;10121576;29;20398;-85
2023/03/21 17:59:08;;;;;;;8.45;2.92;;;;;;;9.96;91.82;100837.75;10109434;29;20525;-84
2023/03/21 18:05:00;;;;;;;6.90;3.72;;;;;;;9.98;91.70;100841.28;10111107;29;20048;-84
2023/03/21 18:10:50;;;;;;;6.40;2.80;;;;;;;10.00;91.70;100843.94;10084379;29;20199;-85
2023/03/21 18:22:10;;;;;;;5.15;2.65;;;;;;;9.98;91.91;100841.28;10139367;29;20052;-84
2023/03/21 18:27:13;;;;;;;5.40;2.60;;;;;;;9.95;91.82;100849.06;10166551;29;20059;-86
2023/03/21 18:32:14;;;;;;;6.05;2.83;;;;;;;9.98;91.94;100849.13;10174204;29;20067;-86
2023/03/21 18:37:17;;;;;;;5.63;2.75;;;;;;;9.98;91.98;100856.09;10124905;29;20057;-86
2023/03/21 18:42:18;;;;;;;6.38;3.13;;;;;;;9.94;91.80;100859.50;10150371;29;20521;-83
2023/03/21 18:47:24;;;;;;;7.80;3.63;;;;;;;9.97;92.05;100863.06;10157447;29;20063;-85
2023/03/21 18:52:26;;;;;;;6.20;3.10;;;;;;;9.98;91.81;100867.44;10145518;29;20064;-85
2023/03/21 18:57:27;;;;;;;4.38;2.33;;;;;;;10.01;91.69;100862.28;10155595;29;20052;-83
2023/03/21 19:02:41;;;;;;;13.70;3.28;;;;;;;10.00;91.39;100868.38;10139353;29;20112;-84
2023/03/21 19:07:49;;;;;;;5.90;2.63;;;;;;;10.04;91.18;100870.19;10126914;29;20058;-85
2023/03/21 19:12:52;;;;;;;8.15;3.97;;;;;;;10.07;90.78;100880.72;10146292;29;20835;-85
2023/03/21 19:17:54;;;;;;;11.20;3.85;;;;;;;10.06;90.69;100863.25;10148628;29;20432;-85
2023/03/21 19:23:16;;;;;;;7.10;3.05;;;;;;;9.95;90.68;100861.25;10145644;29;20056;-84
2023/03/21 19:28:19;;;;;;;6.97;2.92;;;;;;;9.88;90.83;100850.69;10148098;29;20045;-84
2023/03/21 19:33:21;;;;;;;5.97;3.03;;;;;;;9.82;90.96;100852.28;10124904;29;20060;-85
2023/03/21 19:38:23;;;;;;;6.55;3.05;;;;;;;9.72;91.19;100849.47;10155940;29;20048;-85
2023/03/21 19:43:24;;;;;;;5.15;2.65;;;;;;;9.69;91.50;100838.94;10144128;29;20048;-84
2023/03/21 19:48:33;;;;;;;8.73;3.00;;;;;;;9.66;91.74;100841.47;10141561;29;21326;-84
2023/03/21 19:53:39;;;;;;;6.75;3.63;;;;;;;9.64;91.80;100845.81;10144411;29;20045;-84
2023/03/21 19:58:41;;;;;;;5.20;3.08;;;;;;;9.62;92.01;100839.66;10141276;29;20079;-82
2023/03/21 20:03:46;;;;;;;5.43;3.05;;;;;;;9.55;92.13;100836.03;10142951;29;20044;-85
2023/03/21 20:08:47;;;;;;;4.95;2.60;;;;;;;9.52;92.36;100849.03;10099278;29;20056;-84
2023/03/21 20:14:09;;;;;;;8.88;3.55;;;;;;;9.54;92.30;100838.59;10110055;29;20044;-84
2023/03/21 20:19:12;;;;;;;6.78;3.42;;;;;;;9.54;92.43;100836.00;10125120;29;20040;-84
2023/03/21 20:24:15;;;;;;;10.45;3.25;;;;;;;9.45;92.78;100828.81;10129802;29;20562;-84
2023/03/21 20:29:16;;;;;;;10.00;3.70;;;;;;;9.44;92.83;100837.50;10123526;29;20601;-84
2023/03/21 20:34:39;;;;;;;8.43;4.15;;;;;;;9.38;92.98;100838.28;10157998;29;20040;-85
2023/03/21 20:39:41;;;;;;;6.43;2.88;;;;;;;9.36;93.00;100819.03;10139921;29;20052;-84
2023/03/21 20:44:43;;;;;;;10.10;4.47;;;;;;;9.30;93.21;100833.72;10157072;29;20044;-85
2023/03/21 20:49:58;;;;;;;7.55;4.07;;;;;;;9.28;93.09;100831.06;10177071;29;20068;-85
2023/03/21 20:55:00;;;;;;;9.30;4.50;;;;;;;9.25;92.94;100827.47;10149407;29;20048;-84
2023/03/21 21:00:12;;;;;;;8.82;4.45;;;;;;;9.23;92.70;100830.06;10150767;29;20044;-84
2023/03/21 21:05:16;;;;;;;12.77;3.97;;;;;;;9.21;92.76;100810.88;10111014;29;20428;-84
2023/03/21 21:10:31;;;;;;;8.05;3.67;;;;;;;9.23;92.64;100816.13;10150528;29;20541;-84
2023/03/21 21:15:36;;;;;;;8.10;4.57;;;;;;;9.25;92.41;100804.88;10151658;29;20292;-85
2023/03/21 21:20:37;;;;;;;8.23;3.78;;;;;;;9.24;92.38;100794.38;10125780;29;20107;-85
2023/03/21 21:25:39;;;;;;;7.28;3.28;;;;;;;9.22;92.10;100803.91;10157548;29;20044;-85
2023/03/21 21:30:41;;;;;;;10.20;3.72;;;;;;;9.21;92.09;100805.63;10117098;29;20508;-83
2023/03/21 21:35:46;;;;;;;11.10;3.60;;;;;;;9.22;91.83;100804.81;10135354;29;20116;-84
2023/03/21 21:40:50;;;;;;;6.43;3.35;;;;;;;9.21;91.82;100800.41;10123166;29;20139;-85
2023/03/21 21:45:52;;;;;;;8.98;4.30;;;;;;;9.19;91.66;100800.38;10151952;29;20056;-85
2023/03/21 21:50:54;;;;;;;5.97;3.03;;;;;;;9.19;91.46;100789.94;10123154;29;20056;-85
2023/03/21 21:55:56;;;;;;;6.43;3.45;;;;;;;9.16;91.37;100774.19;10142126;29;20060;-83
2023/03/21 22:00:59;;;;;;;7.90;3.80;;;;;;;9.05;91.37;100785.22;10121267;29;20465;-85
2023/03/21 22:06:03;;;;;;;6.82;3.40;;;;;;;8.95;90.98;100786.75;10150443;29;20062;-83
2023/03/21 22:11:05;;;;;;;5.47;2.75;;;;;;;8.94;91.23;100785.84;10141059;29;20105;-83
2023/03/21 22:16:07;;;;;;;8.00;3.97;;;;;;;8.97;91.51;100782.44;10152980;29;20513;-83
2023/03/21 22:21:09;;;;;;;10.02;2.80;;;;;;;9.01;91.36;100784.28;10133667;29;20090;-84
2023/03/21 22:26:10;;;;;;;5.22;2.30;;;;;;;9.09;91.39;100781.84;10116468;29;20055;-84
2023/03/21 22:31:15;;;;;;;9.45;3.40;;;;;;;9.10;91.67;100781.88;10136416;29;20048;-84
2023/03/21 22:36:17;;;;;;;8.00;3.92;;;;;;;9.05;91.33;100765.22;10128047;29;20156;-84
2023/03/21 22:41:18;;;;;;;8.55;4.40;;;;;;;9.06;91.59;100763.50;10138406;29;20058;-84
2023/03/21 22:46:20;;;;;;;6.70;3.90;;;;;;;8.95;91.43;100764.13;10151049;29;20506;-84
2023/03/21 22:51:21;;;;;;;7.18;3.45;;;;;;;8.85;91.43;100755.19;10130060;29;20120;-83
2023/03/21 22:56:23;;;;;;;5.88;2.90;;;;;;;8.76;91.61;100748.88;10156932;29;20139;-84
2023/03/21 23:01:25;;;;;;;6.22;4.03;;;;;;;8.64;91.98;100742.50;10157848;29;20087;-84
2023/03/21 23:06:27;;;;;;;7.72;3.85;;;;;;;8.52;92.01;100744.81;10170173;29;20056;-84
2023/03/21 23:11:28;;;;;;;9.23;2.70;;;;;;;8.38;92.16;100746.19;10167727;29;20055;-83
2023/03/21 23:16:30;;;;;;;9.82;3.97;;;;;;;8.29;92.37;100752.03;10120709;29;20132;-83
2023/03/21 23:21:33;;;;;;;6.75;2.97;;;;;;;8.27;92.77;100746.78;10148761;29;20060;-85
2023/03/21 23:26:35;;;;;;;10.00;4.13;;;;;;;8.27;93.00;100751.09;10155104;29;20060;-84
2023/03/21 23:31:37;;;;;;;7.57;3.50;;;;;;;8.24;93.15;100741.50;10158058;29;20468;-84
2023/03/21 23:36:39;;;;;;;9.65;3.47;;;;;;;8.24;93.36;100735.38;10129732;29;20060;-84
2023/03/21 23:41:43;;;;;;;12.20;4.40;;;;;;;8.19;93.43;100727.44;10144505;29;20044;-84
2023/03/21 23:46:45;;;;;;;8.00;3.65;;;;;;;8.15;93.53;100728.19;10102351;29;20059;-85
2023/03/21 23:51:47;;;;;;;8.80;4.55;;;;;;;8.08;93.75;100718.47;10135023;29;20056;-84
2023/03/21 23:56:48;;;;;;;7.78;4.20;;;;;;;8.01;94.08;100706.09;10130328;29;20056;-84
